WMKK/KUL METAR and TAF weather

Enter ICAO airport designator
Station Type Date Time Source
WMKK METAR 2022/06/28 08:00 UTC NOAA

WMKK 280800Z VRB03KT 9999 FEW017CB 30/24 Q1006 NOSIG


Station Type Date Time Source
WMKK Decoded METAR 2022/06/28 08:00 UTC NOAA

Sepang/KL International Airport, Malaysia (WMKK) 02-44N 101-42E 22M
Jun 28, 2022 - 04:00 AM EDT / 2022.06.28 0800 UTC
Wind: Variable at 3 MPH (3 KT):0
Visibility: greater than 7 mile(s):0
Sky conditions: mostly clear
Weather: Cumulonimbus clouds observed
Temperature: 86 F (30 C)
Heat index: 95.0 F (35.0 C):1
Dew Point: 75 F (24 C)
Relative Humidity: 70%
Pressure (altimeter): 29.71 in. Hg (1006 hPa)
ob: WMKK 280800Z VRB03KT 9999 FEW017CB 30/24 Q1006 NOSIG
cycle: 8

Station Type Date Time Source
WMKK TAF 2022/06/28 06:15 UTC NOAA

TAF WMKK 280500Z 2806/2912 VRB02KT 9999 FEW018 PROB30
TEMPO 2808/2812 4000 TSRA FEW017CB
TEMPO 2821/2901 4000 TSRA FEW017CB

Example: see airport list